sensor_id;sensor_type;location;lat;lon;timestamp;P1;durP1;ratioP1;P2;durP2;ratioP2
61785;SDS011;47692;53.714;11.372;2023-04-15T00:00:20;39.28;;;16.27;;
61785;SDS011;47692;53.714;11.372;2023-04-15T00:02:45;45.92;;;16.15;;
61785;SDS011;47692;53.714;11.372;2023-04-15T00:05:12;53.10;;;17.73;;
61785;SDS011;47692;53.714;11.372;2023-04-15T00:07:37;47.78;;;17.25;;
61785;SDS011;47692;53.714;11.372;2023-04-15T00:10:02;54.35;;;17.23;;
61785;SDS011;47692;53.714;11.372;2023-04-15T00:12:29;53.35;;;18.48;;
61785;SDS011;47692;53.714;11.372;2023-04-15T00:14:54;46.20;;;16.13;;
61785;SDS011;47692;53.714;11.372;2023-04-15T00:17:21;49.35;;;17.15;;
61785;SDS011;47692;53.714;11.372;2023-04-15T00:19:46;58.67;;;18.45;;
61785;SDS011;47692;53.714;11.372;2023-04-15T00:22:12;54.05;;;17.42;;
61785;SDS011;47692;53.714;11.372;2023-04-15T00:24:38;59.08;;;16.48;;
61785;SDS011;47692;53.714;11.372;2023-04-15T00:27:03;55.05;;;18.42;;
61785;SDS011;47692;53.714;11.372;2023-04-15T00:29:29;54.88;;;16.77;;
61785;SDS011;47692;53.714;11.372;2023-04-15T00:31:57;57.03;;;18.30;;
61785;SDS011;47692;53.714;11.372;2023-04-15T00:34:23;51.00;;;18.25;;
61785;SDS011;47692;53.714;11.372;2023-04-15T00:36:49;60.10;;;19.38;;
61785;SDS011;47692;53.714;11.372;2023-04-15T00:39:15;63.53;;;20.10;;
61785;SDS011;47692;53.714;11.372;2023-04-15T00:41:41;70.25;;;21.30;;
61785;SDS011;47692;53.714;11.372;2023-04-15T00:44:07;70.28;;;20.70;;
61785;SDS011;47692;53.714;11.372;2023-04-15T00:46:34;65.43;;;20.58;;
61785;SDS011;47692;53.714;11.372;2023-04-15T00:49:01;71.60;;;19.77;;
61785;SDS011;47692;53.714;11.372;2023-04-15T00:51:28;68.70;;;19.55;;
61785;SDS011;47692;53.714;11.372;2023-04-15T00:53:55;65.00;;;19.77;;
61785;SDS011;47692;53.714;11.372;2023-04-15T00:56:21;75.43;;;21.27;;
61785;SDS011;47692;53.714;11.372;2023-04-15T00:58:48;72.10;;;21.55;;
61785;SDS011;47692;53.714;11.372;2023-04-15T01:01:14;75.60;;;22.75;;
61785;SDS011;47692;53.714;11.372;2023-04-15T01:03:40;80.15;;;20.58;;
61785;SDS011;47692;53.714;11.372;2023-04-15T01:06:05;73.72;;;21.60;;
61785;SDS011;47692;53.714;11.372;2023-04-15T01:08:31;68.53;;;20.45;;
61785;SDS011;47692;53.714;11.372;2023-04-15T01:10:57;75.40;;;21.52;;
61785;SDS011;47692;53.714;11.372;2023-04-15T01:13:25;75.65;;;22.85;;
61785;SDS011;47692;53.714;11.372;2023-04-15T01:15:51;67.18;;;19.77;;
61785;SDS011;47692;53.714;11.372;2023-04-15T01:18:17;66.65;;;20.40;;
61785;SDS011;47692;53.714;11.372;2023-04-15T01:20:43;78.65;;;21.63;;
61785;SDS011;47692;53.714;11.372;2023-04-15T01:23:08;67.18;;;20.60;;
61785;SDS011;47692;53.714;11.372;2023-04-15T01:25:34;80.53;;;24.30;;
61785;SDS011;47692;53.714;11.372;2023-04-15T01:27:59;68.07;;;22.48;;
61785;SDS011;47692;53.714;11.372;2023-04-15T01:30:25;73.10;;;22.85;;
61785;SDS011;47692;53.714;11.372;2023-04-15T01:32:51;66.30;;;20.55;;
61785;SDS011;47692;53.714;11.372;2023-04-15T01:35:17;69.10;;;21.67;;
61785;SDS011;47692;53.714;11.372;2023-04-15T01:37:42;73.18;;;22.48;;
61785;SDS011;47692;53.714;11.372;2023-04-15T01:40:08;70.32;;;22.58;;
61785;SDS011;47692;53.714;11.372;2023-04-15T01:42:34;69.10;;;21.42;;
61785;SDS011;47692;53.714;11.372;2023-04-15T01:45:01;70.45;;;20.85;;
61785;SDS011;47692;53.714;11.372;2023-04-15T01:47:27;60.70;;;20.90;;
61785;SDS011;47692;53.714;11.372;2023-04-15T01:49:52;71.65;;;22.92;;
61785;SDS011;47692;53.714;11.372;2023-04-15T01:52:17;68.38;;;23.40;;
61785;SDS011;47692;53.714;11.372;2023-04-15T01:54:43;77.50;;;22.40;;
61785;SDS011;47692;53.714;11.372;2023-04-15T01:57:08;75.18;;;21.73;;
61785;SDS011;47692;53.714;11.372;2023-04-15T01:59:34;74.78;;;20.90;;
61785;SDS011;47692;53.714;11.372;2023-04-15T02:02:00;82.93;;;21.42;;
61785;SDS011;47692;53.714;11.372;2023-04-15T02:04:25;75.45;;;20.88;;
61785;SDS011;47692;53.714;11.372;2023-04-15T02:06:51;81.90;;;19.38;;
61785;SDS011;47692;53.714;11.372;2023-04-15T02:09:17;87.78;;;19.05;;
61785;SDS011;47692;53.714;11.372;2023-04-15T02:11:42;73.97;;;19.27;;
61785;SDS011;47692;53.714;11.372;2023-04-15T02:14:08;79.13;;;20.60;;
61785;SDS011;47692;53.714;11.372;2023-04-15T02:16:33;89.85;;;18.42;;
61785;SDS011;47692;53.714;11.372;2023-04-15T02:18:59;76.03;;;19.50;;
61785;SDS011;47692;53.714;11.372;2023-04-15T02:21:27;62.42;;;17.45;;
61785;SDS011;47692;53.714;11.372;2023-04-15T02:23:53;63.88;;;18.08;;
61785;SDS011;47692;53.714;11.372;2023-04-15T02:26:18;81.70;;;20.05;;
61785;SDS011;47692;53.714;11.372;2023-04-15T02:28:44;68.53;;;19.23;;
61785;SDS011;47692;53.714;11.372;2023-04-15T02:31:10;67.95;;;20.35;;
61785;SDS011;47692;53.714;11.372;2023-04-15T02:33:36;77.70;;;19.60;;
61785;SDS011;47692;53.714;11.372;2023-04-15T02:36:02;84.63;;;22.52;;
61785;SDS011;47692;53.714;11.372;2023-04-15T02:38:27;71.43;;;20.63;;
61785;SDS011;47692;53.714;11.372;2023-04-15T02:40:52;69.05;;;20.05;;
61785;SDS011;47692;53.714;11.372;2023-04-15T02:43:18;84.55;;;21.20;;
61785;SDS011;47692;53.714;11.372;2023-04-15T02:45:43;66.00;;;21.52;;
61785;SDS011;47692;53.714;11.372;2023-04-15T02:48:10;82.38;;;21.35;;
61785;SDS011;47692;53.714;11.372;2023-04-15T02:50:35;79.25;;;21.95;;
61785;SDS011;47692;53.714;11.372;2023-04-15T02:53:03;64.70;;;20.45;;
61785;SDS011;47692;53.714;11.372;2023-04-15T02:55:29;72.43;;;19.42;;
61785;SDS011;47692;53.714;11.372;2023-04-15T02:57:55;71.28;;;22.60;;
61785;SDS011;47692;53.714;11.372;2023-04-15T03:00:22;86.78;;;21.30;;
61785;SDS011;47692;53.714;11.372;2023-04-15T03:02:49;69.65;;;20.27;;
61785;SDS011;47692;53.714;11.372;2023-04-15T03:05:16;85.43;;;21.05;;
61785;SDS011;47692;53.714;11.372;2023-04-15T03:07:41;74.32;;;21.55;;
61785;SDS011;47692;53.714;11.372;2023-04-15T03:10:06;85.90;;;22.42;;
61785;SDS011;47692;53.714;11.372;2023-04-15T03:12:32;65.35;;;20.15;;
61785;SDS011;47692;53.714;11.372;2023-04-15T03:14:57;77.85;;;23.25;;
61785;SDS011;47692;53.714;11.372;2023-04-15T03:17:24;79.53;;;19.98;;
61785;SDS011;47692;53.714;11.372;2023-04-15T03:19:49;83.63;;;23.15;;
61785;SDS011;47692;53.714;11.372;2023-04-15T03:22:15;81.95;;;23.90;;
61785;SDS011;47692;53.714;11.372;2023-04-15T03:24:40;86.97;;;23.80;;
61785;SDS011;47692;53.714;11.372;2023-04-15T03:27:06;83.70;;;23.77;;
61785;SDS011;47692;53.714;11.372;2023-04-15T03:29:32;87.90;;;24.05;;
61785;SDS011;47692;53.714;11.372;2023-04-15T03:31:57;79.28;;;21.75;;
61785;SDS011;47692;53.714;11.372;2023-04-15T03:34:22;109.50;;;25.65;;
61785;SDS011;47692;53.714;11.372;2023-04-15T03:36:48;88.40;;;23.63;;
61785;SDS011;47692;53.714;11.372;2023-04-15T03:39:13;85.90;;;22.15;;
61785;SDS011;47692;53.714;11.372;2023-04-15T03:41:38;73.72;;;22.90;;
61785;SDS011;47692;53.714;11.372;2023-04-15T03:44:04;76.43;;;22.23;;
61785;SDS011;47692;53.714;11.372;2023-04-15T03:46:29;78.07;;;23.92;;
61785;SDS011;47692;53.714;11.372;2023-04-15T03:48:55;76.82;;;23.58;;
61785;SDS011;47692;53.714;11.372;2023-04-15T03:51:20;79.53;;;23.00;;
61785;SDS011;47692;53.714;11.372;2023-04-15T03:53:46;80.95;;;21.98;;
61785;SDS011;47692;53.714;11.372;2023-04-15T03:56:11;79.63;;;24.60;;
61785;SDS011;47692;53.714;11.372;2023-04-15T03:58:36;81.47;;;22.92;;
61785;SDS011;47692;53.714;11.372;2023-04-15T04:01:02;86.30;;;24.92;;
61785;SDS011;47692;53.714;11.372;2023-04-15T04:03:27;79.13;;;23.73;;
61785;SDS011;47692;53.714;11.372;2023-04-15T04:05:52;80.82;;;24.58;;
61785;SDS011;47692;53.714;11.372;2023-04-15T04:08:18;78.93;;;22.55;;
61785;SDS011;47692;53.714;11.372;2023-04-15T04:10:44;77.72;;;24.17;;
61785;SDS011;47692;53.714;11.372;2023-04-15T04:13:09;67.25;;;22.88;;
61785;SDS011;47692;53.714;11.372;2023-04-15T04:15:35;73.18;;;21.80;;
61785;SDS011;47692;53.714;11.372;2023-04-15T04:18:00;74.63;;;21.88;;
61785;SDS011;47692;53.714;11.372;2023-04-15T04:20:26;67.22;;;20.50;;
61785;SDS011;47692;53.714;11.372;2023-04-15T04:22:51;80.80;;;21.83;;
61785;SDS011;47692;53.714;11.372;2023-04-15T04:25:16;79.68;;;21.73;;
61785;SDS011;47692;53.714;11.372;2023-04-15T04:27:41;75.93;;;21.00;;
61785;SDS011;47692;53.714;11.372;2023-04-15T04:30:07;66.57;;;20.70;;
61785;SDS011;47692;53.714;11.372;2023-04-15T04:32:32;73.82;;;20.13;;
61785;SDS011;47692;53.714;11.372;2023-04-15T04:34:58;72.88;;;21.13;;
61785;SDS011;47692;53.714;11.372;2023-04-15T04:37:23;66.07;;;19.95;;
61785;SDS011;47692;53.714;11.372;2023-04-15T04:39:49;76.15;;;21.92;;
61785;SDS011;47692;53.714;11.372;2023-04-15T04:42:14;77.28;;;21.15;;
61785;SDS011;47692;53.714;11.372;2023-04-15T04:44:40;66.97;;;20.77;;
61785;SDS011;47692;53.714;11.372;2023-04-15T04:47:05;70.93;;;21.08;;
61785;SDS011;47692;53.714;11.372;2023-04-15T04:49:31;75.72;;;20.55;;
61785;SDS011;47692;53.714;11.372;2023-04-15T04:51:56;69.95;;;20.80;;
61785;SDS011;47692;53.714;11.372;2023-04-15T04:54:22;72.18;;;21.85;;
61785;SDS011;47692;53.714;11.372;2023-04-15T04:56:47;74.72;;;21.08;;
61785;SDS011;47692;53.714;11.372;2023-04-15T04:59:13;67.97;;;21.85;;
61785;SDS011;47692;53.714;11.372;2023-04-15T05:01:38;71.05;;;21.38;;
61785;SDS011;47692;53.714;11.372;2023-04-15T05:04:04;71.50;;;20.55;;
61785;SDS011;47692;53.714;11.372;2023-04-15T05:06:31;68.35;;;21.42;;
61785;SDS011;47692;53.714;11.372;2023-04-15T05:08:56;69.32;;;20.58;;
61785;SDS011;47692;53.714;11.372;2023-04-15T05:11:21;71.70;;;21.33;;
61785;SDS011;47692;53.714;11.372;2023-04-15T05:13:47;65.05;;;21.75;;
61785;SDS011;47692;53.714;11.372;2023-04-15T05:16:12;70.50;;;22.27;;
61785;SDS011;47692;53.714;11.372;2023-04-15T05:18:37;76.93;;;23.38;;
61785;SDS011;47692;53.714;11.372;2023-04-15T05:21:03;66.88;;;21.35;;
61785;SDS011;47692;53.714;11.372;2023-04-15T05:23:29;70.38;;;22.25;;
61785;SDS011;47692;53.714;11.372;2023-04-15T05:25:54;67.38;;;21.25;;
61785;SDS011;47692;53.714;11.372;2023-04-15T05:28:19;75.40;;;22.48;;
61785;SDS011;47692;53.714;11.372;2023-04-15T05:30:45;70.07;;;22.80;;
61785;SDS011;47692;53.714;11.372;2023-04-15T05:33:10;72.93;;;24.35;;
61785;SDS011;47692;53.714;11.372;2023-04-15T05:35:36;70.60;;;23.77;;
61785;SDS011;47692;53.714;11.372;2023-04-15T05:38:01;76.43;;;24.08;;
61785;SDS011;47692;53.714;11.372;2023-04-15T05:40:27;80.40;;;24.02;;
61785;SDS011;47692;53.714;11.372;2023-04-15T05:42:52;73.47;;;24.77;;
61785;SDS011;47692;53.714;11.372;2023-04-15T05:45:17;71.82;;;27.45;;
61785;SDS011;47692;53.714;11.372;2023-04-15T05:47:43;68.90;;;25.05;;
61785;SDS011;47692;53.714;11.372;2023-04-15T05:50:08;74.15;;;24.95;;
61785;SDS011;47692;53.714;11.372;2023-04-15T05:52:34;68.55;;;23.38;;
61785;SDS011;47692;53.714;11.372;2023-04-15T05:54:59;60.40;;;23.05;;
61785;SDS011;47692;53.714;11.372;2023-04-15T05:57:24;64.18;;;22.60;;
61785;SDS011;47692;53.714;11.372;2023-04-15T05:59:50;57.03;;;21.00;;
61785;SDS011;47692;53.714;11.372;2023-04-15T06:02:16;61.33;;;21.45;;
61785;SDS011;47692;53.714;11.372;2023-04-15T06:04:42;56.40;;;22.85;;
61785;SDS011;47692;53.714;11.372;2023-04-15T06:07:07;57.13;;;20.67;;
61785;SDS011;47692;53.714;11.372;2023-04-15T06:09:33;54.67;;;21.58;;
61785;SDS011;47692;53.714;11.372;2023-04-15T06:11:58;50.10;;;19.92;;
61785;SDS011;47692;53.714;11.372;2023-04-15T06:14:25;51.25;;;20.02;;
61785;SDS011;47692;53.714;11.372;2023-04-15T06:16:50;52.08;;;20.55;;
61785;SDS011;47692;53.714;11.372;2023-04-15T06:19:16;51.10;;;19.73;;
61785;SDS011;47692;53.714;11.372;2023-04-15T06:21:42;50.30;;;19.58;;
61785;SDS011;47692;53.714;11.372;2023-04-15T06:24:08;47.65;;;20.42;;
61785;SDS011;47692;53.714;11.372;2023-04-15T06:26:33;56.25;;;21.70;;
61785;SDS011;47692;53.714;11.372;2023-04-15T06:28:59;59.40;;;21.25;;
61785;SDS011;47692;53.714;11.372;2023-04-15T06:31:24;53.55;;;20.92;;
61785;SDS011;47692;53.714;11.372;2023-04-15T06:33:50;50.50;;;21.80;;
61785;SDS011;47692;53.714;11.372;2023-04-15T06:36:15;61.50;;;21.48;;
61785;SDS011;47692;53.714;11.372;2023-04-15T06:38:41;53.50;;;21.55;;
61785;SDS011;47692;53.714;11.372;2023-04-15T06:41:06;57.70;;;23.13;;
61785;SDS011;47692;53.714;11.372;2023-04-15T06:43:31;58.53;;;22.17;;
61785;SDS011;47692;53.714;11.372;2023-04-15T06:45:57;57.95;;;22.50;;
61785;SDS011;47692;53.714;11.372;2023-04-15T06:48:23;56.63;;;20.90;;
61785;SDS011;47692;53.714;11.372;2023-04-15T06:50:48;54.78;;;21.10;;
61785;SDS011;47692;53.714;11.372;2023-04-15T06:53:14;59.00;;;22.17;;
61785;SDS011;47692;53.714;11.372;2023-04-15T06:55:39;49.03;;;20.88;;
61785;SDS011;47692;53.714;11.372;2023-04-15T06:58:05;57.08;;;21.52;;
61785;SDS011;47692;53.714;11.372;2023-04-15T07:00:31;55.72;;;21.55;;
61785;SDS011;47692;53.714;11.372;2023-04-15T07:02:58;59.67;;;21.70;;
61785;SDS011;47692;53.714;11.372;2023-04-15T07:05:24;52.08;;;21.48;;
61785;SDS011;47692;53.714;11.372;2023-04-15T07:07:50;54.70;;;22.58;;
61785;SDS011;47692;53.714;11.372;2023-04-15T07:10:15;55.13;;;21.67;;
61785;SDS011;47692;53.714;11.372;2023-04-15T07:12:41;55.92;;;21.90;;
61785;SDS011;47692;53.714;11.372;2023-04-15T07:15:06;51.90;;;21.95;;
61785;SDS011;47692;53.714;11.372;2023-04-15T07:17:32;46.70;;;21.08;;
61785;SDS011;47692;53.714;11.372;2023-04-15T07:19:58;49.95;;;21.73;;
61785;SDS011;47692;53.714;11.372;2023-04-15T07:22:23;49.88;;;21.20;;
61785;SDS011;47692;53.714;11.372;2023-04-15T07:24:49;50.22;;;21.67;;
61785;SDS011;47692;53.714;11.372;2023-04-15T07:27:14;46.33;;;21.00;;
61785;SDS011;47692;53.714;11.372;2023-04-15T07:29:41;50.22;;;21.75;;
61785;SDS011;47692;53.714;11.372;2023-04-15T07:32:06;45.67;;;21.55;;
61785;SDS011;47692;53.714;11.372;2023-04-15T07:34:32;49.90;;;22.73;;
61785;SDS011;47692;53.714;11.372;2023-04-15T07:36:57;50.00;;;22.50;;
61785;SDS011;47692;53.714;11.372;2023-04-15T07:39:22;49.08;;;21.23;;
61785;SDS011;47692;53.714;11.372;2023-04-15T07:41:47;44.38;;;21.15;;
61785;SDS011;47692;53.714;11.372;2023-04-15T07:44:13;43.30;;;20.98;;
61785;SDS011;47692;53.714;11.372;2023-04-15T07:46:38;42.25;;;20.20;;
61785;SDS011;47692;53.714;11.372;2023-04-15T07:49:04;41.03;;;19.95;;
61785;SDS011;47692;53.714;11.372;2023-04-15T07:51:29;41.83;;;20.40;;
61785;SDS011;47692;53.714;11.372;2023-04-15T07:53:56;42.75;;;19.83;;
61785;SDS011;47692;53.714;11.372;2023-04-15T07:56:21;44.13;;;19.98;;
61785;SDS011;47692;53.714;11.372;2023-04-15T07:58:46;35.40;;;19.35;;
61785;SDS011;47692;53.714;11.372;2023-04-15T08:01:12;36.05;;;20.05;;
61785;SDS011;47692;53.714;11.372;2023-04-15T08:03:37;37.33;;;18.83;;
61785;SDS011;47692;53.714;11.372;2023-04-15T08:06:03;36.22;;;19.58;;
61785;SDS011;47692;53.714;11.372;2023-04-15T08:08:28;38.55;;;19.48;;
61785;SDS011;47692;53.714;11.372;2023-04-15T08:10:54;36.55;;;18.95;;
61785;SDS011;47692;53.714;11.372;2023-04-15T08:13:19;36.35;;;18.67;;
61785;SDS011;47692;53.714;11.372;2023-04-15T08:15:44;32.78;;;17.75;;
61785;SDS011;47692;53.714;11.372;2023-04-15T08:18:10;32.80;;;18.08;;
61785;SDS011;47692;53.714;11.372;2023-04-15T08:20:35;31.52;;;17.40;;
61785;SDS011;47692;53.714;11.372;2023-04-15T08:23:01;31.35;;;16.88;;
61785;SDS011;47692;53.714;11.372;2023-04-15T08:25:27;29.23;;;16.77;;
61785;SDS011;47692;53.714;11.372;2023-04-15T08:27:54;31.77;;;16.52;;
61785;SDS011;47692;53.714;11.372;2023-04-15T08:30:19;27.20;;;15.43;;
61785;SDS011;47692;53.714;11.372;2023-04-15T08:32:45;28.65;;;15.82;;
61785;SDS011;47692;53.714;11.372;2023-04-15T08:35:11;28.08;;;16.20;;
61785;SDS011;47692;53.714;11.372;2023-04-15T08:37:37;28.67;;;15.80;;
61785;SDS011;47692;53.714;11.372;2023-04-15T08:40:02;28.05;;;15.30;;
61785;SDS011;47692;53.714;11.372;2023-04-15T08:42:33;26.50;;;14.90;;
61785;SDS011;47692;53.714;11.372;2023-04-15T08:45:03;25.00;;;14.43;;
61785;SDS011;47692;53.714;11.372;2023-04-15T08:47:29;23.95;;;14.52;;
61785;SDS011;47692;53.714;11.372;2023-04-15T08:49:58;24.65;;;14.52;;
61785;SDS011;47692;53.714;11.372;2023-04-15T08:52:26;25.75;;;14.82;;
61785;SDS011;47692;53.714;11.372;2023-04-15T08:54:56;21.58;;;13.57;;
61785;SDS011;47692;53.714;11.372;2023-04-15T08:57:24;25.23;;;14.68;;
61785;SDS011;47692;53.714;11.372;2023-04-15T08:59:51;24.67;;;14.30;;
61785;SDS011;47692;53.714;11.372;2023-04-15T09:02:18;24.45;;;14.30;;
61785;SDS011;47692;53.714;11.372;2023-04-15T09:04:43;23.60;;;14.35;;
61785;SDS011;47692;53.714;11.372;2023-04-15T09:07:08;23.52;;;14.73;;
61785;SDS011;47692;53.714;11.372;2023-04-15T09:09:34;23.95;;;14.57;;
61785;SDS011;47692;53.714;11.372;2023-04-15T09:12:01;21.23;;;13.27;;
61785;SDS011;47692;53.714;11.372;2023-04-15T09:14:28;24.08;;;14.93;;
61785;SDS011;47692;53.714;11.372;2023-04-15T09:16:56;20.98;;;13.38;;
61785;SDS011;47692;53.714;11.372;2023-04-15T09:19:26;20.67;;;13.20;;
61785;SDS011;47692;53.714;11.372;2023-04-15T09:21:55;25.08;;;14.35;;
61785;SDS011;47692;53.714;11.372;2023-04-15T09:24:22;22.75;;;13.73;;
61785;SDS011;47692;53.714;11.372;2023-04-15T09:26:51;19.65;;;12.43;;
61785;SDS011;47692;53.714;11.372;2023-04-15T09:29:23;19.42;;;12.25;;
61785;SDS011;47692;53.714;11.372;2023-04-15T09:31:49;20.50;;;12.43;;
61785;SDS011;47692;53.714;11.372;2023-04-15T09:34:15;14.65;;;9.75;;
61785;SDS011;47692;53.714;11.372;2023-04-15T09:39:12;15.02;;;9.70;;
61785;SDS011;47692;53.714;11.372;2023-04-15T09:41:37;14.55;;;10.13;;
61785;SDS011;47692;53.714;11.372;2023-04-15T09:44:03;13.60;;;9.02;;
61785;SDS011;47692;53.714;11.372;2023-04-15T09:46:39;13.88;;;9.05;;
61785;SDS011;47692;53.714;11.372;2023-04-15T09:49:08;14.70;;;9.95;;
61785;SDS011;47692;53.714;11.372;2023-04-15T09:51:34;13.35;;;9.43;;
61785;SDS011;47692;53.714;11.372;2023-04-15T09:54:00;13.25;;;9.43;;
61785;SDS011;47692;53.714;11.372;2023-04-15T09:56:31;15.82;;;10.18;;
61785;SDS011;47692;53.714;11.372;2023-04-15T09:59:01;12.13;;;9.15;;
61785;SDS011;47692;53.714;11.372;2023-04-15T10:01:27;13.60;;;9.73;;
61785;SDS011;47692;53.714;11.372;2023-04-15T10:03:53;13.27;;;9.25;;
61785;SDS011;47692;53.714;11.372;2023-04-15T10:06:21;13.88;;;8.77;;
61785;SDS011;47692;53.714;11.372;2023-04-15T10:08:47;13.25;;;8.85;;
61785;SDS011;47692;53.714;11.372;2023-04-15T10:11:16;12.88;;;8.65;;
61785;SDS011;47692;53.714;11.372;2023-04-15T10:13:42;14.88;;;9.18;;
61785;SDS011;47692;53.714;11.372;2023-04-15T10:21:10;10.07;;;6.90;;
61785;SDS011;47692;53.714;11.372;2023-04-15T10:23:38;11.23;;;7.40;;
61785;SDS011;47692;53.714;11.372;2023-04-15T10:26:03;11.18;;;7.00;;
61785;SDS011;47692;53.714;11.372;2023-04-15T10:28:30;9.98;;;6.65;;
61785;SDS011;47692;53.714;11.372;2023-04-15T10:30:56;10.07;;;6.35;;
61785;SDS011;47692;53.714;11.372;2023-04-15T10:33:22;8.68;;;5.80;;
61785;SDS011;47692;53.714;11.372;2023-04-15T10:35:49;9.45;;;6.28;;
61785;SDS011;47692;53.714;11.372;2023-04-15T10:41:13;10.05;;;6.65;;
61785;SDS011;47692;53.714;11.372;2023-04-15T10:43:44;11.07;;;7.20;;
61785;SDS011;47692;53.714;11.372;2023-04-15T10:46:41;9.60;;;6.43;;
61785;SDS011;47692;53.714;11.372;2023-04-15T10:49:08;9.30;;;6.05;;
61785;SDS011;47692;53.714;11.372;2023-04-15T10:51:36;9.45;;;6.40;;
61785;SDS011;47692;53.714;11.372;2023-04-15T10:56:51;7.65;;;5.82;;
61785;SDS011;47692;53.714;11.372;2023-04-15T10:59:31;10.82;;;6.68;;
61785;SDS011;47692;53.714;11.372;2023-04-15T11:01:59;10.68;;;6.90;;
61785;SDS011;47692;53.714;11.372;2023-04-15T11:12:50;9.88;;;6.65;;
61785;SDS011;47692;53.714;11.372;2023-04-15T11:20:37;9.25;;;6.47;;
61785;SDS011;47692;53.714;11.372;2023-04-15T11:23:04;10.43;;;6.05;;
61785;SDS011;47692;53.714;11.372;2023-04-15T11:25:30;10.77;;;7.63;;
61785;SDS011;47692;53.714;11.372;2023-04-15T11:27:57;10.43;;;6.32;;
61785;SDS011;47692;53.714;11.372;2023-04-15T11:30:24;12.02;;;6.85;;
61785;SDS011;47692;53.714;11.372;2023-04-15T11:32:51;8.27;;;6.15;;
61785;SDS011;47692;53.714;11.372;2023-04-15T11:35:18;10.00;;;6.25;;
61785;SDS011;47692;53.714;11.372;2023-04-15T11:37:44;13.00;;;7.50;;
61785;SDS011;47692;53.714;11.372;2023-04-15T11:40:10;9.13;;;6.72;;
61785;SDS011;47692;53.714;11.372;2023-04-15T11:42:35;9.77;;;6.72;;
61785;SDS011;47692;53.714;11.372;2023-04-15T11:45:08;12.40;;;7.13;;
61785;SDS011;47692;53.714;11.372;2023-04-15T11:47:38;9.18;;;6.57;;
61785;SDS011;47692;53.714;11.372;2023-04-15T11:50:18;11.07;;;7.10;;
61785;SDS011;47692;53.714;11.372;2023-04-15T11:52:54;10.05;;;6.63;;
61785;SDS011;47692;53.714;11.372;2023-04-15T11:55:21;9.18;;;6.05;;
61785;SDS011;47692;53.714;11.372;2023-04-15T11:57:48;7.93;;;5.97;;
61785;SDS011;47692;53.714;11.372;2023-04-15T12:00:29;8.10;;;5.85;;
61785;SDS011;47692;53.714;11.372;2023-04-15T12:03:10;11.02;;;5.90;;
61785;SDS011;47692;53.714;11.372;2023-04-15T12:08:49;8.10;;;5.63;;
61785;SDS011;47692;53.714;11.372;2023-04-15T12:11:31;9.07;;;6.18;;
61785;SDS011;47692;53.714;11.372;2023-04-15T12:14:02;9.73;;;5.70;;
61785;SDS011;47692;53.714;11.372;2023-04-15T12:16:28;10.63;;;6.50;;
61785;SDS011;47692;53.714;11.372;2023-04-15T12:18:57;11.00;;;7.07;;
61785;SDS011;47692;53.714;11.372;2023-04-15T12:21:24;15.38;;;11.13;;
61785;SDS011;47692;53.714;11.372;2023-04-15T12:23:52;17.08;;;12.43;;
61785;SDS011;47692;53.714;11.372;2023-04-15T12:26:27;18.75;;;12.30;;
61785;SDS011;47692;53.714;11.372;2023-04-15T12:29:00;19.02;;;12.73;;
61785;SDS011;47692;53.714;11.372;2023-04-15T12:31:27;23.88;;;13.63;;
61785;SDS011;47692;53.714;11.372;2023-04-15T12:33:58;20.65;;;13.32;;
61785;SDS011;47692;53.714;11.372;2023-04-15T12:36:25;20.40;;;13.35;;
61785;SDS011;47692;53.714;11.372;2023-04-15T12:38:51;19.92;;;12.85;;
61785;SDS011;47692;53.714;11.372;2023-04-15T12:41:16;22.65;;;12.90;;
61785;SDS011;47692;53.714;11.372;2023-04-15T12:43:45;19.65;;;12.85;;
61785;SDS011;47692;53.714;11.372;2023-04-15T12:46:11;23.73;;;14.40;;
61785;SDS011;47692;53.714;11.372;2023-04-15T12:48:37;23.27;;;16.27;;
61785;SDS011;47692;53.714;11.372;2023-04-15T12:51:02;27.98;;;17.65;;
61785;SDS011;47692;53.714;11.372;2023-04-15T12:53:27;29.40;;;18.73;;
61785;SDS011;47692;53.714;11.372;2023-04-15T12:55:53;29.90;;;18.23;;
61785;SDS011;47692;53.714;11.372;2023-04-15T12:58:18;30.77;;;18.88;;
61785;SDS011;47692;53.714;11.372;2023-04-15T13:00:43;30.42;;;20.08;;
61785;SDS011;47692;53.714;11.372;2023-04-15T13:03:09;30.02;;;17.77;;
61785;SDS011;47692;53.714;11.372;2023-04-15T13:05:34;23.77;;;15.68;;
61785;SDS011;47692;53.714;11.372;2023-04-15T13:08:01;20.90;;;14.70;;
61785;SDS011;47692;53.714;11.372;2023-04-15T13:10:27;24.50;;;14.48;;
61785;SDS011;47692;53.714;11.372;2023-04-15T13:12:53;23.90;;;15.25;;
61785;SDS011;47692;53.714;11.372;2023-04-15T13:15:20;21.67;;;14.27;;
61785;SDS011;47692;53.714;11.372;2023-04-15T13:17:46;21.73;;;14.48;;
61785;SDS011;47692;53.714;11.372;2023-04-15T13:20:12;20.60;;;13.18;;
61785;SDS011;47692;53.714;11.372;2023-04-15T13:22:37;21.92;;;13.68;;
61785;SDS011;47692;53.714;11.372;2023-04-15T13:25:03;23.38;;;13.60;;
61785;SDS011;47692;53.714;11.372;2023-04-15T13:27:28;26.05;;;15.73;;
61785;SDS011;47692;53.714;11.372;2023-04-15T13:29:53;20.50;;;14.00;;
61785;SDS011;47692;53.714;11.372;2023-04-15T13:32:19;22.90;;;14.27;;
61785;SDS011;47692;53.714;11.372;2023-04-15T13:34:44;20.92;;;14.25;;
61785;SDS011;47692;53.714;11.372;2023-04-15T13:37:10;23.45;;;14.27;;
61785;SDS011;47692;53.714;11.372;2023-04-15T13:39:35;26.52;;;15.20;;
61785;SDS011;47692;53.714;11.372;2023-04-15T13:42:00;25.00;;;15.15;;
61785;SDS011;47692;53.714;11.372;2023-04-15T13:44:26;21.77;;;14.52;;
61785;SDS011;47692;53.714;11.372;2023-04-15T13:46:52;23.80;;;14.90;;
61785;SDS011;47692;53.714;11.372;2023-04-15T13:49:17;19.88;;;13.25;;
61785;SDS011;47692;53.714;11.372;2023-04-15T13:51:42;19.73;;;13.18;;
61785;SDS011;47692;53.714;11.372;2023-04-15T13:54:08;19.95;;;14.02;;
61785;SDS011;47692;53.714;11.372;2023-04-15T13:56:33;20.77;;;13.90;;
61785;SDS011;47692;53.714;11.372;2023-04-15T13:58:58;19.23;;;12.88;;
61785;SDS011;47692;53.714;11.372;2023-04-15T14:01:26;19.10;;;12.90;;
61785;SDS011;47692;53.714;11.372;2023-04-15T14:03:52;18.20;;;12.38;;
61785;SDS011;47692;53.714;11.372;2023-04-15T14:06:17;18.08;;;11.85;;
61785;SDS011;47692;53.714;11.372;2023-04-15T14:08:42;18.23;;;11.82;;
61785;SDS011;47692;53.714;11.372;2023-04-15T14:11:08;17.10;;;11.35;;
61785;SDS011;47692;53.714;11.372;2023-04-15T14:13:34;16.85;;;11.23;;
61785;SDS011;47692;53.714;11.372;2023-04-15T14:16:00;16.08;;;10.05;;
61785;SDS011;47692;53.714;11.372;2023-04-15T14:18:25;17.35;;;11.20;;
61785;SDS011;47692;53.714;11.372;2023-04-15T14:20:50;16.98;;;11.38;;
61785;SDS011;47692;53.714;11.372;2023-04-15T14:23:16;18.10;;;9.95;;
61785;SDS011;47692;53.714;11.372;2023-04-15T14:25:41;13.15;;;8.98;;
61785;SDS011;47692;53.714;11.372;2023-04-15T14:28:06;14.48;;;8.38;;
61785;SDS011;47692;53.714;11.372;2023-04-15T14:30:32;12.18;;;8.30;;
61785;SDS011;47692;53.714;11.372;2023-04-15T14:32:57;14.57;;;9.18;;
61785;SDS011;47692;53.714;11.372;2023-04-15T14:35:22;14.93;;;9.52;;